This is the latest recevied weather packets stored in our database for station/object KE6RLG. If no packets are shown the sender has not sent any weather packets the latest 10 day(s).
| Time | Temp. | Humidity | Pressure | Rain* | Wind** | Luminosity | Snow |
|---|---|---|---|---|---|---|---|
| 1778154620 | 12.78° C | 93% | 1015.4 hPa | 0 mm | - | 0 W/m² | - |
| 1778152821 | 13.33° C | 93% | 1015.4 hPa | 0 mm | - | 0 W/m² | - |
| 1778152521 | 13.33° C | 93% | 1015.4 hPa | 0 mm | - | 0 W/m² | - |
| 1778149522 | 12.78° C | 93% | 1015.7 hPa | 0 mm | - | 0 W/m² | - |
| 1778147722 | 12.78° C | 92% | 1015.8 hPa | 0 mm | - | 0 W/m² | - |
| 1778147422 | 12.78° C | 92% | 1015.8 hPa | 0 mm | - | 0 W/m² | - |
| 1778146522 | 12.78° C | 92% | 1016 hPa | 0 mm | - | 0 W/m² | - |
| 1778144123 | 12.78° C | 92% | 1016.2 hPa | 0 mm | - | 0 W/m² | - |
| 1778143823 | 12.78° C | 92% | 1016.2 hPa | 0 mm | - | 0 W/m² | - |
| 1778142623 | 12.78° C | 92% | 1016.3 hPa | 0 mm | - | 0 W/m² | - |
| 1778140844 | 12.78° C | 91% | 1016.4 hPa | 0 mm | - | 0 W/m² | - |
| 1778138724 | 13.33° C | 91% | 1016.6 hPa | 0 mm | - | 0 W/m² | - |
| 1778136924 | 13.33° C | 90% | 1016.7 hPa | 0 mm | - | 0 W/m² | - |
| 1778135425 | 13.33° C | 90% | 1016.7 hPa | 0 mm | - | 0 W/m² | - |
| 1778134825 | 13.33° C | 89% | 1016.7 hPa | 0 mm | - | 0 W/m² | - |
| 1778133945 | 13.89° C | 89% | 1016.8 hPa | 0 mm | - | 0 W/m² | - |
| 1778132766 | 13.89° C | 89% | 1016.7 hPa | 0 mm | - | 0 W/m² | - |
| 1778130018 | 14.44° C | 88% | 1016.5 hPa | 0 mm | - | 0 W/m² | - |
| 1778128838 | 14.44° C | 88% | 1016.3 hPa | 0 mm | - | 0 W/m² | - |
| 1778121320 | 15° C | 85% | 1015.7 hPa | 0 mm | - | 10 W/m² | - |
| 1778119217 | 15.56° C | 81% | 1015.5 hPa | 0 mm | - | 57 W/m² | - |
| 1778118317 | 16.11° C | 80% | 1015.5 hPa | 0 mm | - | 90 W/m² | - |
| 1778113518 | 17.22° C | 66% | 1015.4 hPa | 0 mm | - | 347 W/m² | - |
| 1778104837 | 18.89° C | 67% | 1016.8 hPa | 0 mm | - | 801 W/m² | - |
| 1778103020 | 18.33° C | 68% | 1017.1 hPa | 0 mm | - | 864 W/m² | - |
* Rain latest hour (hover to see other rain measurements)
** Current wind speed in m/s (hover to see current wind gust speed)